Time;durP1;ratioP1;P1;durP2;ratioP2;P2;SDS_P1;SDS_P2;PMS_P1;PMS_P2;Temp;Humidity;BMP_temperature;BMP_pressure;BME280_temperature;BME280_humidity;BME280_pressure;Samples;Min_cycle;Max_cycle;Signal;HPM_P1;HPM_P2
2022/11/03 00:01:05;;;;;;;3.05;0.80;;;13.70;72.30;;;;;;2256989;55;21037;-74
2022/11/03 00:03:32;;;;;;;3.20;0.88;;;13.80;72.40;;;;;;2264121;55;21030;-74
2022/11/03 00:06:04;;;;;;;1.87;0.68;;;13.70;72.40;;;;;;2269279;55;21761;-74
2022/11/03 00:08:38;;;;;;;3.22;0.70;;;13.80;72.50;;;;;;2266053;55;20997;-75
2022/11/03 00:11:12;;;;;;;2.85;0.90;;;13.80;72.30;;;;;;2460499;55;20990;-75
2022/11/03 00:13:41;;;;;;;2.28;0.70;;;13.80;72.40;;;;;;2314368;55;21475;-75
2022/11/03 00:16:09;;;;;;;2.58;0.80;;;13.80;72.60;;;;;;2383800;55;21121;-74
2022/11/03 00:18:36;;;;;;;3.22;0.82;;;13.80;72.50;;;;;;2271488;55;21627;-74
2022/11/03 00:21:04;;;;;;;4.12;1.17;;;13.80;72.40;;;;;;2256749;55;21331;-74
2022/11/03 00:23:33;;;;;;;5.18;1.00;;;13.80;72.30;;;;;;2254956;55;21831;-74
2022/11/03 00:26:12;;;;;;;3.33;1.10;;;13.80;72.30;;;;;;2410380;55;20995;-74
2022/11/03 00:28:40;;;;;;;3.03;1.12;;;13.80;72.10;;;;;;2260640;55;21104;-75
2022/11/03 00:31:15;;;;;;;2.33;0.80;;;13.80;72.30;;;;;;2482492;55;21230;-74
2022/11/03 00:33:41;;;;;;;4.62;1.00;;;13.80;71.70;;;;;;2302659;55;21120;-75
2022/11/03 00:36:10;;;;;;;4.60;1.10;;;13.80;71.70;;;;;;2279620;55;21565;-74
2022/11/03 00:38:37;;;;;;;3.97;1.00;;;13.80;71.70;;;;;;2256072;55;21516;-74
2022/11/03 00:41:04;;;;;;;3.30;0.90;;;13.80;71.70;;;;;;2281685;55;21026;-74
2022/11/03 00:43:32;;;;;;;3.45;1.08;;;13.80;71.50;;;;;;2262184;55;20983;-73
2022/11/03 00:45:58;;;;;;;2.10;0.80;;;13.70;71.30;;;;;;2321077;55;20969;-74
2022/11/03 00:48:28;;;;;;;3.25;0.98;;;13.70;71.30;;;;;;2242277;55;20989;-75
2022/11/03 00:51:32;;;;;;;2.55;0.80;;;13.70;71.30;;;;;;2386149;55;21014;-74
2022/11/03 00:54:08;;;;;;;3.10;0.88;;;13.60;70.20;;;;;;2254302;55;21041;-75
2022/11/03 00:56:38;;;;;;;2.28;0.70;;;13.60;70.60;;;;;;2349979;55;21540;-75
2022/11/03 00:59:05;;;;;;;3.97;1.00;;;13.50;70.70;;;;;;2254339;55;21410;-73
2022/11/03 01:01:33;;;;;;;2.75;0.90;;;13.50;70.70;;;;;;2343151;55;21580;-73
2022/11/03 01:06:51;;;;;;;1.87;0.80;;;13.40;70.70;;;;;;2459094;55;21055;-73
2022/11/03 01:09:45;;;;;;;3.45;1.12;;;13.40;70.60;;;;;;2263498;55;22044;-74
2022/11/03 01:12:14;;;;;;;3.33;1.30;;;13.40;70.30;;;;;;2265412;55;21102;-74
2022/11/03 01:14:58;;;;;;;3.53;1.08;;;13.30;70.50;;;;;;2326855;55;21638;-74
2022/11/03 01:17:26;;;;;;;3.33;0.98;;;13.20;69.80;;;;;;2406498;55;21071;-74
2022/11/03 01:19:53;;;;;;;2.47;0.88;;;13.20;70.40;;;;;;2261070;55;21471;-74
2022/11/03 01:22:20;;;;;;;3.50;0.80;;;13.20;70.50;;;;;;2308240;55;21110;-74
2022/11/03 01:24:46;;;;;;;1.77;0.70;;;13.10;70.30;;;;;;2261446;55;21026;-75
2022/11/03 01:27:15;;;;;;;4.12;1.00;;;13.10;70.30;;;;;;2258284;55;21123;-74
2022/11/03 01:29:41;;;;;;;3.72;1.20;;;13.00;70.30;;;;;;2291112;55;21400;-74
2022/11/03 01:32:08;;;;;;;2.67;0.80;;;13.00;70.40;;;;;;2470435;55;21478;-76
2022/11/03 01:34:35;;;;;;;2.75;1.08;;;12.90;70.60;;;;;;2345996;55;21434;-74
2022/11/03 01:37:01;;;;;;;3.03;0.95;;;12.90;70.50;;;;;;2481542;55;21669;-74
2022/11/03 01:39:28;;;;;;;2.53;0.90;;;12.90;70.40;;;;;;2263871;55;21012;-74
2022/11/03 01:41:54;;;;;;;2.45;1.10;;;12.90;70.50;;;;;;2478492;55;21006;-75
2022/11/03 01:44:34;;;;;;;3.10;0.98;;;12.80;70.30;;;;;;2275587;56;21326;-73
2022/11/03 01:47:08;;;;;;;2.90;0.90;;;12.80;70.10;;;;;;2266302;55;20982;-74
2022/11/03 01:49:54;;;;;;;2.45;0.88;;;12.80;70.30;;;;;;2270771;55;21061;-75
2022/11/03 01:53:20;;;;;;;2.60;0.95;;;12.80;69.90;;;;;;2312856;55;20994;-74
2022/11/03 01:55:47;;;;;;;2.47;0.90;;;12.70;69.40;;;;;;2254686;55;20994;-74
2022/11/03 01:58:19;;;;;;;3.95;1.20;;;12.60;70.30;;;;;;2251920;55;21002;-75
2022/11/03 02:00:49;;;;;;;3.00;1.20;;;12.60;70.20;;;;;;2263789;55;20970;-74
2022/11/03 02:03:16;;;;;;;3.47;1.10;;;12.60;70.20;;;;;;2249139;55;21470;-74
2022/11/03 02:05:43;;;;;;;3.97;1.30;;;12.50;70.30;;;;;;2280629;55;21617;-74
2022/11/03 02:08:37;;;;;;;3.50;1.27;;;12.50;70.20;;;;;;2302445;55;21523;-74
2022/11/03 02:12:05;;;;;;;3.65;1.00;;;12.40;69.60;;;;;;2254021;55;21507;-74
2022/11/03 02:14:31;;;;;;;4.18;1.30;;;12.40;70.10;;;;;;2242704;55;21002;-74
2022/11/03 02:17:01;;;;;;;3.17;1.10;;;12.40;70.20;;;;;;2251613;56;21049;-74
2022/11/03 02:19:41;;;;;;;3.40;1.00;;;12.30;70.10;;;;;;2278277;55;21802;-74
2022/11/03 02:23:30;;;;;;;3.00;1.27;;;12.30;69.80;;;;;;2241224;55;21486;-75
2022/11/03 02:25:56;;;;;;;3.60;1.12;;;12.20;69.50;;;;;;2247072;55;21535;-74
2022/11/03 02:28:29;;;;;;;3.55;1.30;;;12.20;70.10;;;;;;2248139;56;20977;-74
2022/11/03 02:31:15;;;;;;;3.65;1.50;;;12.10;70.00;;;;;;2251150;56;20958;-74
2022/11/03 02:40:33;;;;;;;2.83;1.12;;;12.10;69.70;;;;;;2257471;55;21370;-74
2022/11/03 02:43:00;;;;;;;4.85;1.27;;;12.00;69.30;;;;;;2257716;56;21007;-74
2022/11/03 02:45:26;;;;;;;3.08;1.27;;;12.00;70.20;;;;;;2247398;56;21141;-75
2022/11/03 02:47:53;;;;;;;4.15;1.73;;;12.00;70.50;;;;;;2253951;56;21045;-75
2022/11/03 02:50:21;;;;;;;3.50;1.50;;;11.90;70.60;;;;;;2241822;56;21100;-74
2022/11/03 02:52:48;;;;;;;3.17;1.30;;;11.90;70.80;;;;;;2280700;55;21055;-76
2022/11/03 02:56:41;;;;;;;3.60;1.58;;;11.90;70.80;;;;;;2252274;55;21678;-73
2022/11/03 02:59:10;;;;;;;3.20;1.30;;;11.90;70.10;;;;;;2258643;55;21507;-73
2022/11/03 03:01:47;;;;;;;2.33;1.17;;;11.90;71.00;;;;;;2242289;55;21555;-74
2022/11/03 03:04:27;;;;;;;2.85;1.15;;;11.90;71.00;;;;;;2249365;56;20992;-74
2022/11/03 03:07:00;;;;;;;2.72;1.33;;;11.80;70.60;;;;;;2307309;56;21018;-75
2022/11/03 03:09:29;;;;;;;3.67;1.25;;;11.80;71.00;;;;;;2369317;55;21477;-75
2022/11/03 03:11:56;;;;;;;3.53;1.30;;;11.80;71.10;;;;;;2254187;55;21635;-74
2022/11/03 03:14:24;;;;;;;2.87;1.27;;;11.80;71.20;;;;;;2249766;56;21089;-75
2022/11/03 03:17:01;;;;;;;2.87;1.12;;;11.80;71.10;;;;;;2269278;55;21055;-75
2022/11/03 03:21:22;;;;;;;3.40;1.42;;;11.80;70.80;;;;;;2259200;55;21407;-74
2022/11/03 03:23:56;;;;;;;3.30;1.27;;;11.80;70.00;;;;;;2478441;55;20972;-73
2022/11/03 03:26:48;;;;;;;2.78;1.10;;;11.80;71.00;;;;;;2249059;55;21500;-73
2022/11/03 03:29:17;;;;;;;2.78;1.10;;;11.80;70.50;;;;;;2229125;56;21376;-75
2022/11/03 03:31:47;;;;;;;4.05;1.30;;;11.80;70.80;;;;;;2247244;55;21001;-75
2022/11/03 03:34:14;;;;;;;4.50;1.20;;;11.80;70.90;;;;;;2347732;55;21061;-73
2022/11/03 03:36:58;;;;;;;4.12;1.50;;;11.80;71.00;;;;;;2345684;55;21060;-73
2022/11/03 03:39:26;;;;;;;2.08;0.95;;;11.80;71.10;;;;;;2371550;55;21038;-74
2022/11/03 03:41:52;;;;;;;2.53;0.90;;;11.80;71.10;;;;;;2251230;56;21057;-74
2022/11/03 03:44:19;;;;;;;2.58;0.70;;;11.70;71.00;;;;;;2258300;56;21019;-74
2022/11/03 03:46:48;;;;;;;2.05;0.70;;;11.80;71.10;;;;;;2255727;56;21003;-73
2022/11/03 03:49:15;;;;;;;2.97;0.90;;;11.80;71.10;;;;;;2292000;56;21930;-75
2022/11/03 03:51:41;;;;;;;3.62;0.98;;;11.70;71.00;;;;;;2346275;55;21113;-74
2022/11/03 03:54:08;;;;;;;2.50;1.15;;;11.70;71.20;;;;;;2309529;56;20961;-75
2022/11/03 03:56:42;;;;;;;3.28;0.80;;;11.70;71.40;;;;;;2456019;55;21622;-75
2022/11/03 03:59:09;;;;;;;3.55;0.85;;;11.70;71.30;;;;;;2250493;56;21475;-74
2022/11/03 04:01:36;;;;;;;3.55;1.05;;;11.70;71.50;;;;;;2284203;55;21525;-74
2022/11/03 04:04:02;;;;;;;4.15;0.95;;;11.70;71.60;;;;;;2379391;55;21382;-75
2022/11/03 04:06:29;;;;;;;1.95;0.80;;;11.80;71.70;;;;;;2294689;55;20985;-74
2022/11/03 04:08:55;;;;;;;2.37;0.75;;;11.80;71.80;;;;;;2440009;55;21028;-74
2022/11/03 04:23:26;;;;;;;2.67;0.80;;;11.80;71.70;;;;;;2291693;55;20993;-74
2022/11/03 04:25:54;;;;;;;1.75;0.80;;;11.80;71.70;;;;;;2296730;55;21520;-75
2022/11/03 04:28:20;;;;;;;2.53;0.90;;;11.80;71.60;;;;;;2265298;55;21037;-74
2022/11/03 04:30:47;;;;;;;2.03;0.80;;;11.80;71.60;;;;;;2481439;55;21664;-73
2022/11/03 04:33:15;;;;;;;2.50;1.00;;;11.80;71.50;;;;;;2297226;55;21855;-74
2022/11/03 04:35:43;;;;;;;3.12;1.00;;;11.80;71.30;;;;;;2355744;55;21447;-74
2022/11/03 04:38:27;;;;;;;2.97;1.20;;;11.80;71.20;;;;;;2356876;55;22116;-74
2022/11/03 04:40:55;;;;;;;2.62;0.98;;;11.80;70.90;;;;;;2335640;55;21001;-75
2022/11/03 04:43:28;;;;;;;2.40;0.85;;;11.80;71.40;;;;;;2248967;55;21012;-74
2022/11/03 04:45:55;;;;;;;2.10;0.80;;;11.80;71.40;;;;;;2318821;55;21000;-74
2022/11/03 04:48:21;;;;;;;2.25;0.90;;;11.80;71.40;;;;;;2247465;59;21590;-74
2022/11/03 04:50:49;;;;;;;2.30;0.70;;;11.80;71.30;;;;;;2257606;59;21058;-74
2022/11/03 04:53:17;;;;;;;2.20;0.80;;;11.80;71.20;;;;;;2256530;59;21756;-74
2022/11/03 04:55:44;;;;;;;3.28;0.80;;;11.70;71.10;;;;;;2291623;55;21047;-75
2022/11/03 04:58:25;;;;;;;5.40;1.65;;;11.70;71.10;;;;;;2330780;55;21461;-75
2022/11/03 05:00:59;;;;;;;3.60;1.00;;;11.70;70.60;;;;;;2256487;59;21730;-74
2022/11/03 05:03:30;;;;;;;3.97;1.00;;;11.70;70.80;;;;;;2386977;55;21544;-74
2022/11/03 05:05:56;;;;;;;4.03;0.88;;;11.70;70.80;;;;;;2482885;55;21522;-75
2022/11/03 05:08:23;;;;;;;2.30;0.80;;;11.70;70.80;;;;;;2254052;59;21415;-74
2022/11/03 05:10:49;;;;;;;2.17;0.90;;;11.70;70.70;;;;;;2477196;55;21059;-74
2022/11/03 05:13:25;;;;;;;2.40;0.93;;;11.60;70.50;;;;;;2254477;59;21747;-75
2022/11/03 05:15:53;;;;;;;3.58;0.90;;;11.60;70.30;;;;;;2477471;55;21606;-74
2022/11/03 05:18:21;;;;;;;3.03;0.90;;;11.60;70.70;;;;;;2254089;55;21679;-74
2022/11/03 05:20:53;;;;;;;3.10;0.80;;;11.60;70.90;;;;;;2254582;55;20985;-73
2022/11/03 05:23:20;;;;;;;1.60;0.60;;;11.60;70.90;;;;;;2358149;55;21007;-75
2022/11/03 05:25:49;;;;;;;2.08;0.82;;;11.50;70.60;;;;;;2260142;55;21782;-74
2022/11/03 05:28:26;;;;;;;2.50;0.82;;;11.50;70.60;;;;;;2259411;55;21732;-73
2022/11/03 05:30:52;;;;;;;2.25;0.93;;;11.60;70.60;;;;;;2476760;55;21421;-75
2022/11/03 05:33:29;;;;;;;3.08;1.10;;;11.50;70.70;;;;;;2259014;56;20983;-73
2022/11/03 05:35:58;;;;;;;3.22;0.90;;;11.50;71.50;;;;;;2488179;55;20952;-74
2022/11/03 05:38:24;;;;;;;1.60;0.73;;;11.50;71.00;;;;;;2257901;56;20979;-74
2022/11/03 05:40:52;;;;;;;2.17;0.80;;;11.50;70.90;;;;;;2341106;55;21015;-75
2022/11/03 05:43:18;;;;;;;2.58;0.88;;;11.50;70.90;;;;;;2259293;55;21562;-74
2022/11/03 05:45:44;;;;;;;2.37;0.85;;;11.40;70.80;;;;;;2354494;55;21069;-74
2022/11/03 05:48:15;;;;;;;3.53;1.23;;;11.40;70.60;;;;;;2284301;55;22511;-74
2022/11/03 05:50:41;;;;;;;2.42;0.90;;;11.40;70.50;;;;;;2518242;54;21090;-74
2022/11/03 05:53:29;;;;;;;2.92;0.98;;;11.40;70.60;;;;;;2284011;55;20971;-75
2022/11/03 05:55:58;;;;;;;2.15;0.98;;;11.40;70.10;;;;;;2289899;55;20943;-74
2022/11/03 05:58:42;;;;;;;1.62;0.77;;;11.30;70.60;;;;;;2518949;54;21490;-74
2022/11/03 06:01:29;;;;;;;2.08;0.80;;;11.30;70.20;;;;;;2262986;55;21544;-75
2022/11/03 06:03:56;;;;;;;2.67;1.02;;;11.30;70.30;;;;;;2355037;54;21346;-74
2022/11/03 06:07:44;;;;;;;4.12;0.93;;;11.30;70.70;;;;;;2373304;54;21467;-74
2022/11/03 06:10:30;;;;;;;1.95;0.70;;;11.30;70.00;;;;;;2283352;55;21018;-75
2022/11/03 06:13:02;;;;;;;1.67;0.65;;;11.30;70.50;;;;;;2284790;55;20995;-74
2022/11/03 06:15:31;;;;;;;1.70;0.68;;;11.30;70.90;;;;;;2281995;55;21495;-75
2022/11/03 06:17:58;;;;;;;2.97;1.20;;;11.30;71.00;;;;;;2455561;54;20974;-75
2022/11/03 06:20:24;;;;;;;3.03;1.45;;;11.20;71.00;;;;;;2461203;54;21538;-74
2022/11/03 06:22:51;;;;;;;3.53;1.00;;;11.30;71.20;;;;;;2291156;54;21027;-74
2022/11/03 06:25:36;;;;;;;2.37;1.05;;;11.20;71.20;;;;;;2283941;55;21043;-75
2022/11/03 06:28:08;;;;;;;2.30;0.90;;;11.20;70.80;;;;;;2516009;54;20975;-74
2022/11/03 06:30:35;;;;;;;3.58;1.58;;;11.20;71.90;;;;;;2282980;55;20975;-74
2022/11/03 06:33:24;;;;;;;3.10;1.50;;;11.20;71.20;;;;;;2491606;54;21420;-75
2022/11/03 06:35:53;;;;;;;2.83;1.33;;;11.30;71.00;;;;;;2319531;54;21601;-75
2022/11/03 06:38:24;;;;;;;3.20;1.10;;;11.20;71.30;;;;;;2367099;55;21611;-74
2022/11/03 06:40:51;;;;;;;3.30;1.30;;;11.30;71.20;;;;;;2284948;55;21798;-74
2022/11/03 06:43:23;;;;;;;4.10;1.20;;;11.20;71.20;;;;;;2284394;55;21271;-74
2022/11/03 06:45:54;;;;;;;3.60;0.87;;;11.30;71.20;;;;;;2285142;55;20942;-75
2022/11/03 06:48:25;;;;;;;2.03;0.80;;;11.30;71.30;;;;;;2339748;54;21030;-75
2022/11/03 06:50:52;;;;;;;3.40;1.33;;;11.30;71.30;;;;;;2284310;55;21033;-74
2022/11/03 06:53:24;;;;;;;3.78;0.85;;;11.30;71.40;;;;;;2308718;55;20978;-75
2022/11/03 06:55:50;;;;;;;3.45;0.70;;;11.30;71.40;;;;;;2284782;55;21091;-74
2022/11/03 06:58:32;;;;;;;6.12;1.62;;;11.30;71.40;;;;;;2518262;54;21002;-75
2022/11/03 07:01:00;;;;;;;5.20;1.17;;;11.30;71.20;;;;;;2295962;55;20958;-74
2022/11/03 07:03:36;;;;;;;3.42;1.60;;;11.30;71.40;;;;;;2342231;54;21024;-74
2022/11/03 07:06:26;;;;;;;2.90;1.40;;;11.30;71.50;;;;;;2284506;55;20998;-75
2022/11/03 07:09:06;;;;;;;3.22;1.58;;;11.30;71.30;;;;;;2509797;54;20943;-74
2022/11/03 07:11:41;;;;;;;3.05;1.77;;;11.30;71.70;;;;;;2353179;55;20943;-74
2022/11/03 07:14:15;;;;;;;3.12;1.77;;;11.30;71.70;;;;;;2255926;56;21395;-76
2022/11/03 07:16:47;;;;;;;3.78;1.75;;;11.40;71.90;;;;;;2237483;55;21410;-74
2022/11/03 07:19:22;;;;;;;4.12;1.65;;;11.30;71.90;;;;;;2504994;54;21008;-74
2022/11/03 07:21:58;;;;;;;2.70;1.37;;;11.40;72.00;;;;;;2279955;56;21004;-74
2022/11/03 07:24:30;;;;;;;3.37;1.40;;;11.40;71.90;;;;;;2512691;54;21421;-75
2022/11/03 07:27:20;;;;;;;4.47;1.50;;;11.50;72.10;;;;;;2280117;56;20984;-75
2022/11/03 07:29:48;;;;;;;3.28;1.73;;;11.40;71.90;;;;;;2354506;54;21481;-75
2022/11/03 07:32:16;;;;;;;3.47;1.52;;;11.50;72.20;;;;;;2452853;54;20945;-74
2022/11/03 07:34:43;;;;;;;3.42;1.65;;;11.50;72.40;;;;;;2512632;54;21246;-74
2022/11/03 07:37:13;;;;;;;3.55;1.52;;;11.60;72.60;;;;;;2279216;56;20999;-74
2022/11/03 07:39:40;;;;;;;3.10;1.52;;;11.60;72.70;;;;;;2305204;54;20933;-75
2022/11/03 07:43:59;;;;;;;6.10;1.65;;;11.60;72.80;;;;;;2280269;56;21046;-74
2022/11/03 07:46:26;;;;;;;3.55;1.83;;;11.70;72.00;;;;;;2279365;56;20932;-74
2022/11/03 07:49:01;;;;;;;3.28;1.75;;;11.70;72.90;;;;;;2512244;54;20957;-73
2022/11/03 07:51:31;;;;;;;4.25;2.20;;;11.70;73.00;;;;;;2511507;54;20984;-73
2022/11/03 07:54:29;;;;;;;3.33;1.80;;;11.80;73.20;;;;;;2279733;56;20984;-73
2022/11/03 07:57:03;;;;;;;3.60;1.87;;;11.80;73.00;;;;;;2288957;54;20987;-73
2022/11/03 07:59:32;;;;;;;;;;;11.90;73.40;;;;;;2356167;54;21032;-74
2022/11/03 08:01:59;;;;;;;3.20;1.87;;;11.90;72.50;;;;;;2269134;56;20180;-73
2022/11/03 08:04:33;;;;;;;4.90;1.65;;;12.00;73.40;;;;;;2279818;56;20960;-75
2022/11/03 08:06:59;;;;;;;3.40;1.80;;;12.00;73.40;;;;;;2485373;54;20979;-73
2022/11/03 08:09:26;;;;;;;5.80;2.33;;;12.10;73.50;;;;;;2279588;56;20945;-75
2022/11/03 08:11:52;;;;;;;3.62;2.03;;;12.10;73.50;;;;;;2280396;56;21049;-74
2022/11/03 08:14:18;;;;;;;3.42;1.85;;;12.20;73.60;;;;;;2303507;55;21020;-75
2022/11/03 08:16:45;;;;;;;4.18;2.17;;;12.20;73.60;;;;;;2348798;54;21547;-73
2022/11/03 08:19:12;;;;;;;3.45;1.90;;;12.30;73.70;;;;;;2512167;54;20960;-74
2022/11/03 08:21:38;;;;;;;4.15;1.98;;;12.30;73.70;;;;;;2279972;56;20939;-73
2022/11/03 08:24:05;;;;;;;6.07;1.90;;;12.40;73.90;;;;;;2280529;56;20964;-74
2022/11/03 08:26:32;;;;;;;4.82;2.10;;;12.40;73.90;;;;;;2280446;56;21002;-75
2022/11/03 08:28:59;;;;;;;4.07;1.83;;;12.50;74.10;;;;;;2280748;56;21087;-75
2022/11/03 08:31:26;;;;;;;3.65;1.52;;;12.60;74.20;;;;;;2271670;56;21425;-75
2022/11/03 08:33:52;;;;;;;4.30;1.80;;;12.60;74.10;;;;;;2279673;55;20963;-75
2022/11/03 08:36:19;;;;;;;4.22;1.70;;;12.70;74.10;;;;;;2279936;56;21464;-74
2022/11/03 08:38:45;;;;;;;4.55;2.10;;;12.70;74.10;;;;;;2279433;56;21378;-74
2022/11/03 08:41:12;;;;;;;4.32;2.00;;;12.80;74.20;;;;;;2278549;56;21004;-74
2022/11/03 08:43:39;;;;;;;4.15;1.70;;;12.80;74.20;;;;;;2511273;54;20940;-74
2022/11/03 08:46:05;;;;;;;5.93;2.35;;;12.90;74.40;;;;;;2279504;56;20953;-74
2022/11/03 08:48:39;;;;;;;3.78;2.10;;;12.90;74.40;;;;;;2353691;54;21008;-74
2022/11/03 08:51:07;;;;;;;4.12;1.95;;;13.00;74.50;;;;;;2278417;55;20940;-75
2022/11/03 08:53:34;;;;;;;3.33;1.58;;;13.10;74.70;;;;;;2450743;54;21012;-75
2022/11/03 08:56:00;;;;;;;2.87;1.50;;;13.10;74.70;;;;;;2347593;54;20964;-74
2022/11/03 08:58:27;;;;;;;3.65;1.58;;;13.20;74.80;;;;;;2411652;54;21470;-74
2022/11/03 09:00:53;;;;;;;3.30;1.92;;;13.30;74.90;;;;;;2264467;56;21086;-74
2022/11/03 09:03:20;;;;;;;2.83;1.30;;;13.40;75.00;;;;;;2343367;54;20978;-74
2022/11/03 09:05:46;;;;;;;3.95;1.62;;;13.50;75.20;;;;;;2264311;56;20998;-74
2022/11/03 09:08:13;;;;;;;4.55;1.60;;;13.50;75.10;;;;;;2495162;54;21607;-73
2022/11/03 09:11:09;;;;;;;3.83;1.30;;;13.60;75.20;;;;;;2291548;54;21096;-75
2022/11/03 09:13:35;;;;;;;3.62;1.60;;;13.70;75.30;;;;;;2279088;55;20982;-75
2022/11/03 09:16:02;;;;;;;4.90;1.75;;;13.80;75.30;;;;;;2272146;55;20939;-75
2022/11/03 09:18:28;;;;;;;3.83;1.80;;;13.80;75.20;;;;;;2372013;54;20984;-76
2022/11/03 09:20:55;;;;;;;7.03;2.28;;;13.90;75.00;;;;;;2466658;54;21505;-74
2022/11/03 09:23:21;;;;;;;5.93;1.90;;;14.00;74.90;;;;;;2288081;55;20995;-75
2022/11/03 09:25:47;;;;;;;4.95;1.90;;;14.00;74.90;;;;;;2347295;54;21450;-74
2022/11/03 09:28:14;;;;;;;4.70;2.00;;;14.10;74.90;;;;;;2502844;54;21079;-75
2022/11/03 09:30:40;;;;;;;2.85;1.50;;;14.20;74.90;;;;;;2268431;55;21566;-75
2022/11/03 09:33:06;;;;;;;7.12;2.00;;;14.20;74.70;;;;;;2492800;55;21050;-75
2022/11/03 09:35:32;;;;;;;3.45;1.90;;;14.30;74.80;;;;;;2312881;55;22042;-74
2022/11/03 09:37:59;;;;;;;5.07;2.17;;;14.40;74.90;;;;;;2361006;55;21893;-74
2022/11/03 09:40:25;;;;;;;7.35;1.87;;;14.40;74.90;;;;;;2271053;55;20980;-75
2022/11/03 09:42:51;;;;;;;5.12;1.95;;;14.50;74.90;;;;;;2279438;55;21900;-74
2022/11/03 09:45:18;;;;;;;3.85;1.70;;;14.50;74.90;;;;;;2388734;54;20944;-74
2022/11/03 09:47:47;;;;;;;3.72;1.85;;;14.60;75.10;;;;;;2317965;55;21417;-74
2022/11/03 09:50:16;;;;;;;3.10;1.40;;;14.70;75.10;;;;;;2277083;56;21538;-74
2022/11/03 09:52:42;;;;;;;6.18;1.55;;;14.70;75.00;;;;;;2265417;55;21480;-76
2022/11/03 09:55:15;;;;;;;2.90;1.35;;;14.80;75.10;;;;;;2276044;56;20998;-72
2022/11/03 09:57:42;;;;;;;4.50;1.50;;;14.90;75.10;;;;;;2268237;56;20989;-71
2022/11/03 10:00:29;;;;;;;4.47;1.80;;;14.90;75.20;;;;;;2279884;55;21107;-73
2022/11/03 10:02:55;;;;;;;5.40;1.60;;;15.00;74.20;;;;;;2492509;54;21556;-73
2022/11/03 10:05:25;;;;;;;3.37;1.35;;;15.10;75.00;;;;;;2265473;55;21052;-72
2022/11/03 10:07:53;;;;;;;4.37;1.70;;;15.10;74.60;;;;;;2334692;55;21007;-76
2022/11/03 10:10:20;;;;;;;3.72;1.75;;;15.20;74.90;;;;;;2438195;54;21538;-74
2022/11/03 10:12:48;;;;;;;4.80;2.08;;;15.30;74.80;;;;;;2266840;55;21557;-72
2022/11/03 10:15:15;;;;;;;6.43;2.85;;;15.30;74.70;;;;;;2418554;55;21670;-73
2022/11/03 10:17:41;;;;;;;6.57;1.87;;;15.30;74.80;;;;;;2234176;56;21068;-72
2022/11/03 10:20:15;;;;;;;5.95;2.03;;;15.40;75.00;;;;;;2250231;56;20934;-73
2022/11/03 10:22:42;;;;;;;5.82;1.90;;;15.50;74.80;;;;;;2316439;55;21017;-72
2022/11/03 10:25:36;;;;;;;6.25;3.15;;;15.50;75.20;;;;;;2262834;55;20992;-73
2022/11/03 10:28:23;;;;;;;5.00;2.33;;;15.60;74.50;;;;;;2274373;55;21043;-72
2022/11/03 10:30:56;;;;;;;7.65;2.40;;;15.70;75.00;;;;;;2251798;55;21000;-72
2022/11/03 10:33:39;;;;;;;5.15;2.25;;;15.80;75.20;;;;;;2233495;56;21441;-72
2022/11/03 10:38:03;;;;;;;3.85;1.95;;;15.90;75.30;;;;;;2297942;55;21160;-71
2022/11/03 10:40:34;;;;;;;4.82;1.83;;;16.00;74.10;;;;;;2280474;55;21674;-72
2022/11/03 10:43:12;;;;;;;;;;;16.00;75.10;;;;;;2250022;56;21006;-71
2022/11/03 10:45:39;;;;;;;4.20;1.33;;;16.10;74.10;;;;;;2247977;55;20106;-72
2022/11/03 10:48:08;;;;;;;3.97;1.37;;;16.20;75.30;;;;;;2263248;56;20934;-73
2022/11/03 10:50:35;;;;;;;4.53;1.80;;;16.20;75.20;;;;;;2351035;54;21032;-74
2022/11/03 10:53:02;;;;;;;3.70;1.33;;;16.30;75.20;;;;;;2244459;55;20971;-73
2022/11/03 10:55:28;;;;;;;4.30;2.28;;;16.30;75.20;;;;;;2252586;55;21023;-73
2022/11/03 10:57:54;;;;;;;4.28;1.60;;;16.40;75.40;;;;;;2254055;55;21472;-72
2022/11/03 11:00:21;;;;;;;4.12;1.80;;;16.40;75.20;;;;;;2368867;55;20981;-73
2022/11/03 11:02:48;;;;;;;5.00;1.58;;;16.50;75.20;;;;;;2242551;55;20961;-72
2022/11/03 11:05:19;;;;;;;4.37;1.92;;;16.50;75.10;;;;;;2329174;55;21390;-72
2022/11/03 11:07:45;;;;;;;5.40;2.20;;;16.60;75.00;;;;;;2259661;55;20972;-74
2022/11/03 11:10:14;;;;;;;4.45;1.95;;;16.70;75.00;;;;;;2410301;55;20982;-72
2022/11/03 11:13:04;;;;;;;3.90;1.70;;;16.70;74.70;;;;;;2262621;55;21456;-74
2022/11/03 11:15:41;;;;;;;5.00;1.80;;;16.80;73.90;;;;;;2287530;55;21013;-74
2022/11/03 11:18:08;;;;;;;8.55;2.28;;;16.80;74.50;;;;;;2263980;55;20948;-72
2022/11/03 11:20:41;;;;;;;4.00;1.92;;;16.90;74.90;;;;;;2313239;55;21409;-71
2022/11/03 11:23:47;;;;;;;4.50;1.67;;;16.90;74.60;;;;;;2254348;55;21035;-73
2022/11/03 11:26:15;;;;;;;4.65;1.92;;;16.90;74.00;;;;;;2321296;55;20972;-72
2022/11/03 11:42:31;;;;;;;4.12;1.95;;;17.00;74.80;;;;;;2259237;55;21325;-71
2022/11/03 11:45:01;;;;;;;3.97;1.35;;;17.30;73.50;;;;;;2490539;55;20999;-72
2022/11/03 11:47:42;;;;;;;3.55;1.30;;;17.30;74.40;;;;;;2354654;55;21598;-72
2022/11/03 11:50:15;;;;;;;5.07;2.00;;;17.30;74.40;;;;;;2341785;55;20952;-72
2022/11/03 11:53:08;;;;;;;4.37;1.80;;;17.30;74.10;;;;;;2241791;55;21535;-72
2022/11/03 11:55:46;;;;;;;7.85;2.20;;;17.30;74.40;;;;;;2297375;54;21287;-73
2022/11/03 11:58:46;;;;;;;5.87;1.85;;;17.30;74.20;;;;;;2286441;55;21135;-72
2022/11/03 12:01:35;;;;;;;6.90;1.98;;;17.40;73.50;;;;;;2461852;54;21204;-72
2022/11/03 12:04:32;;;;;;;3.92;1.85;;;17.40;73.80;;;;;;2228361;56;20950;-71
2022/11/03 12:06:58;;;;;;;4.78;1.90;;;17.40;74.00;;;;;;2257823;55;21003;-72
2022/11/03 12:09:26;;;;;;;4.10;1.77;;;17.40;74.60;;;;;;2233315;56;20935;-73
2022/11/03 12:11:57;;;;;;;4.47;1.92;;;17.50;74.70;;;;;;2270926;55;21006;-72
2022/11/03 12:14:42;;;;;;;;;;;17.50;74.40;;;;;;2273509;56;20983;-72
2022/11/03 12:18:27;;;;;;;6.32;2.58;;;17.60;73.40;;;;;;2366138;55;20082;-73
2022/11/03 12:20:53;;;;;;;4.75;2.12;;;17.60;73.20;;;;;;2287256;55;21512;-71
2022/11/03 12:25:31;;;;;;;8.35;3.85;;;17.60;74.30;;;;;;2306155;55;20990;-73
2022/11/03 12:27:58;;;;;;;5.57;2.65;;;17.70;72.80;;;;;;2267726;56;21018;-72
2022/11/03 12:30:25;;;;;;;4.00;2.30;;;17.60;74.00;;;;;;2267675;56;21519;-72
2022/11/03 12:32:52;;;;;;;4.35;1.92;;;17.70;74.00;;;;;;2268510;56;21113;-71
2022/11/03 12:35:18;;;;;;;3.35;1.87;;;17.70;74.00;;;;;;2262897;56;21283;-71
2022/11/03 12:37:45;;;;;;;4.35;2.00;;;17.70;74.10;;;;;;2266239;56;21006;-74
2022/11/03 12:40:11;;;;;;;6.80;2.50;;;17.70;74.20;;;;;;2266580;56;21359;-73
2022/11/03 12:42:38;;;;;;;5.87;2.10;;;17.70;74.20;;;;;;2266554;56;20998;-72
2022/11/03 12:45:06;;;;;;;5.22;1.87;;;17.70;74.90;;;;;;2266052;56;21073;-72
2022/11/03 12:47:32;;;;;;;4.47;2.03;;;17.70;74.20;;;;;;2266478;56;20962;-72
2022/11/03 12:49:59;;;;;;;5.03;2.30;;;17.80;74.20;;;;;;2266132;56;21030;-72
2022/11/03 12:52:25;;;;;;;3.65;1.87;;;17.80;74.00;;;;;;2266205;56;21042;-72
2022/11/03 12:54:51;;;;;;;5.15;2.22;;;17.80;74.00;;;;;;2403370;55;20994;-72
2022/11/03 12:57:17;;;;;;;4.03;1.98;;;17.80;73.90;;;;;;2266341;56;21001;-72
2022/11/03 12:59:44;;;;;;;5.62;2.08;;;17.80;73.70;;;;;;2265688;56;21447;-72
2022/11/03 13:02:10;;;;;;;4.30;2.00;;;17.80;73.70;;;;;;2265864;56;21022;-71
2022/11/03 13:04:36;;;;;;;4.93;2.20;;;17.80;73.70;;;;;;2266145;56;21018;-71
2022/11/03 13:07:04;;;;;;;4.35;2.28;;;17.90;73.80;;;;;;2265756;56;20966;-73
2022/11/03 13:09:30;;;;;;;5.07;2.47;;;17.90;73.70;;;;;;2265172;56;20966;-71
2022/11/03 13:14:41;;;;;;;5.53;2.20;;;17.90;73.60;;;;;;2266497;56;21338;-71
2022/11/03 13:17:08;;;;;;;5.85;2.60;;;17.90;73.60;;;;;;2241488;56;21042;-73
2022/11/03 13:19:35;;;;;;;4.97;2.60;;;17.90;73.60;;;;;;2267020;56;20938;-70
2022/11/03 13:22:01;;;;;;;5.82;2.67;;;17.90;73.60;;;;;;2266660;56;21574;-73
2022/11/03 13:24:27;;;;;;;6.37;2.72;;;17.90;73.60;;;;;;2266836;56;20950;-73
2022/11/03 13:26:54;;;;;;;5.62;2.95;;;17.90;73.70;;;;;;2340109;55;21022;-71
2022/11/03 13:29:20;;;;;;;6.47;3.40;;;17.90;73.70;;;;;;2262630;55;20976;-72
2022/11/03 13:31:46;;;;;;;6.60;2.72;;;18.00;73.80;;;;;;2494345;55;21439;-73
2022/11/03 13:34:13;;;;;;;5.80;2.60;;;17.90;73.70;;;;;;2266174;56;20943;-71
2022/11/03 13:36:39;;;;;;;7.40;2.95;;;18.00;73.80;;;;;;2266013;56;21521;-71
2022/11/03 13:39:05;;;;;;;7.85;3.10;;;18.00;73.80;;;;;;2266503;56;20970;-72
2022/11/03 13:41:32;;;;;;;5.43;3.15;;;18.00;73.60;;;;;;2266660;56;21022;-70
2022/11/03 13:43:58;;;;;;;5.20;2.85;;;18.00;73.50;;;;;;2267073;56;20962;-72
2022/11/03 13:46:25;;;;;;;6.78;3.00;;;18.00;73.30;;;;;;2266808;56;21022;-71
2022/11/03 13:48:51;;;;;;;6.50;2.95;;;18.00;73.90;;;;;;2267164;56;20962;-71
2022/11/03 13:51:48;;;;;;;7.35;2.70;;;18.00;73.20;;;;;;2397580;55;21010;-71
2022/11/03 13:54:14;;;;;;;5.43;2.70;;;18.00;73.10;;;;;;2356454;55;21486;-72
2022/11/03 13:57:11;;;;;;;6.45;2.70;;;18.00;73.10;;;;;;2329127;55;20959;-71
2022/11/03 14:00:14;;;;;;;8.05;3.30;;;18.00;73.20;;;;;;2262131;55;20955;-70